Time;durP1;ratioP1;P1;durP2;ratioP2;P2;SDS_P1;SDS_P2;PMS_P1;PMS_P2;Temp;Humidity;BMP_temperature;BMP_pressure;BME280_temperature;BME280_humidity;BME280_pressure;Samples;Min_cycle;Max_cycle;Signal;HPM_P1;HPM_P2
2023/07/28 00:02:24;;;;;;;11.70;1.10;;;;;;;18.54;100.00;99221.42;177372;1264;46221;-83
2023/07/28 00:06:27;;;;;;;8.90;0.90;;;;;;;18.54;100.00;99216.50;177496;1266;46090;-83
2023/07/28 00:10:30;;;;;;;3.60;0.90;;;;;;;18.57;100.00;99210.30;177236;1267;59414;-83
2023/07/28 00:14:33;;;;;;;5.60;1.60;;;;;;;18.60;100.00;99211.40;176977;1267;45977;-83
2023/07/28 00:18:36;;;;;;;3.80;0.50;;;;;;;18.64;100.00;99206.31;177151;1263;45997;-83
2023/07/28 00:22:39;;;;;;;13.40;1.70;;;;;;;18.62;100.00;99198.60;177354;1267;46123;-83
2023/07/28 00:26:42;;;;;;;0.90;0.50;;;;;;;18.59;100.00;99187.27;177458;1267;46022;-82
2023/07/28 00:30:49;;;;;;;3.20;0.80;;;;;;;18.59;100.00;99185.60;177553;1263;59535;-82
2023/07/28 00:34:52;;;;;;;4.20;0.80;;;;;;;18.59;100.00;99190.82;177400;1267;44169;-82
2023/07/28 00:38:56;;;;;;;2.90;0.70;;;;;;;18.62;100.00;99185.80;177202;1273;46153;-82
2023/07/28 00:42:59;;;;;;;3.30;0.80;;;;;;;18.63;100.00;99181.13;177436;1266;46880;-82
2023/07/28 00:47:02;;;;;;;6.10;1.20;;;;;;;18.59;100.00;99175.41;177468;1267;46089;-82
2023/07/28 00:51:07;;;;;;;10.00;0.70;;;;;;;18.58;100.00;99169.73;177549;1266;58247;-81
2023/07/28 00:55:10;;;;;;;7.40;1.00;;;;;;;18.54;100.00;99166.83;177140;1267;46566;-82
2023/07/28 00:59:13;;;;;;;5.00;1.10;;;;;;;18.54;100.00;99166.87;177094;1264;46038;-83
2023/07/28 01:03:20;;;;;;;3.80;0.90;;;;;;;18.56;100.00;99163.72;177738;1265;46181;-82
2023/07/28 01:07:39;;;;;;;1.60;0.30;;;;;;;18.55;100.00;99160.57;177193;1263;46201;-82
2023/07/28 01:11:56;;;;;;;5.50;1.20;;;;;;;18.58;100.00;99153.41;177385;1267;59392;-82
2023/07/28 01:16:00;;;;;;;1.10;0.80;;;;;;;18.60;100.00;99152.26;177028;1263;46093;-83
2023/07/28 01:20:04;;;;;;;6.90;1.30;;;;;;;18.61;100.00;99151.59;177309;1264;46175;-82
2023/07/28 01:24:20;;;;;;;3.70;0.90;;;;;;;18.63;100.00;99155.27;177211;1265;46025;-84
2023/07/28 01:28:24;;;;;;;7.30;2.10;;;;;;;18.64;100.00;99151.50;177354;1263;45222;-83
2023/07/28 01:32:27;;;;;;;4.30;1.00;;;;;;;18.62;100.00;99147.32;177833;1264;57912;-83
2023/07/28 01:36:30;;;;;;;3.30;0.90;;;;;;;18.62;100.00;99150.88;177537;1268;44875;-81
2023/07/28 01:40:33;;;;;;;7.10;1.10;;;;;;;18.59;100.00;99149.27;176722;1263;46064;-80
2023/07/28 01:44:35;;;;;;;4.80;1.50;;;;;;;18.56;100.00;99150.05;176419;1267;46224;-83
2023/07/28 01:48:38;;;;;;;3.30;1.10;;;;;;;18.49;100.00;99148.52;176849;1264;46036;-82
2023/07/28 01:52:41;;;;;;;8.90;2.10;;;;;;;18.40;100.00;99142.50;176652;1264;58200;-82
2023/07/28 01:56:44;;;;;;;3.60;1.50;;;;;;;18.40;100.00;99143.91;177276;1267;44768;-82
2023/07/28 02:00:47;;;;;;;1.90;1.40;;;;;;;18.42;100.00;99141.34;178260;1263;44330;-83
2023/07/28 02:04:51;;;;;;;4.60;0.90;;;;;;;18.40;100.00;99134.96;178801;1267;44117;-82
2023/07/28 02:08:54;;;;;;;4.50;1.20;;;;;;;18.36;100.00;99130.02;178244;1264;46056;-82
2023/07/28 02:12:57;;;;;;;4.50;1.70;;;;;;;18.35;100.00;99128.36;177897;1264;57853;-82
2023/07/28 02:17:00;;;;;;;2.80;0.80;;;;;;;18.36;100.00;99123.20;178101;1263;45956;-83
2023/07/28 02:21:03;;;;;;;4.70;1.90;;;;;;;18.42;100.00;99126.21;178142;1264;44931;-83
2023/07/28 02:25:06;;;;;;;4.40;1.60;;;;;;;18.46;100.00;99125.02;177998;1264;46066;-83
2023/07/28 02:29:09;;;;;;;5.30;1.70;;;;;;;18.45;100.00;99122.79;177564;1265;44344;-83
2023/07/28 02:33:12;;;;;;;3.70;1.50;;;;;;;18.46;100.00;99122.83;177208;1263;57628;-83
2023/07/28 02:37:16;;;;;;;4.30;1.20;;;;;;;18.47;100.00;99124.98;177489;1267;46125;-83
2023/07/28 02:41:20;;;;;;;4.70;1.30;;;;;;;18.46;100.00;99121.83;177653;1263;46133;-83
2023/07/28 02:45:23;;;;;;;2.20;1.50;;;;;;;18.46;100.00;99117.85;177485;1263;45518;-82
2023/07/28 02:49:26;;;;;;;3.70;1.00;;;;;;;18.48;100.00;99113.39;177798;1263;46028;-83
2023/07/28 02:53:28;;;;;;;2.60;0.70;;;;;;;18.50;100.00;99110.29;177988;1264;59541;-82
2023/07/28 02:57:31;;;;;;;4.80;1.00;;;;;;;18.56;100.00;99107.55;177905;1264;48438;-82
2023/07/28 03:01:35;;;;;;;5.20;0.80;;;;;;;18.59;100.00;99113.89;178413;1263;44670;-82
2023/07/28 03:05:39;;;;;;;3.30;0.60;;;;;;;18.60;100.00;99115.29;177919;1263;46188;-81
2023/07/28 03:09:42;;;;;;;1.20;0.70;;;;;;;18.59;100.00;99115.34;177861;1264;46216;-82
2023/07/28 03:13:45;;;;;;;1.50;0.80;;;;;;;18.61;100.00;99115.02;178691;1264;59554;-82
2023/07/28 03:17:49;;;;;;;0.70;0.50;;;;;;;18.63;100.00;99116.58;177858;1264;45637;-82
2023/07/28 03:21:52;;;;;;;1.60;0.70;;;;;;;18.64;100.00;99116.08;178246;1263;44638;-82
2023/07/28 03:25:55;;;;;;;2.00;0.60;;;;;;;18.66;100.00;99115.66;177704;1264;45911;-83
2023/07/28 03:29:58;;;;;;;0.60;0.50;;;;;;;18.67;100.00;99116.02;178398;1264;44640;-83
2023/07/28 03:34:02;;;;;;;3.00;1.30;;;;;;;18.69;100.00;99114.23;177676;1265;57915;-83
2023/07/28 03:38:05;;;;;;;2.90;0.90;;;;;;;18.71;100.00;99105.84;178121;1268;45276;-83
2023/07/28 03:42:08;;;;;;;1.80;0.60;;;;;;;18.71;100.00;99107.86;178564;1263;43961;-83
2023/07/28 03:46:11;;;;;;;8.20;0.90;;;;;;;18.67;100.00;99110.29;179397;1263;46077;-83
2023/07/28 03:50:15;;;;;;;2.10;0.90;;;;;;;18.74;100.00;99111.61;178276;1265;44809;-83
2023/07/28 03:54:17;;;;;;;4.90;0.40;;;;;;;18.80;100.00;99111.72;178459;1267;59272;-83
2023/07/28 03:58:25;;;;;;;1.70;0.80;;;;;;;18.80;100.00;99113.30;178039;1265;45964;-83
2023/07/28 04:02:28;;;;;;;4.60;0.90;;;;;;;18.83;100.00;99107.16;177407;1265;46015;-83
2023/07/28 04:06:50;;;;;;;3.40;0.40;;;;;;;18.85;100.00;99103.30;177246;1265;46003;-82
2023/07/28 04:10:53;;;;;;;0.80;0.50;;;;;;;18.92;100.00;99104.13;178080;1265;46436;-82
2023/07/28 04:14:56;;;;;;;0.80;0.50;;;;;;;19.00;100.00;99100.73;177828;1264;57325;-83
2023/07/28 04:19:00;;;;;;;1.20;0.50;;;;;;;19.06;100.00;99101.18;177779;1265;45986;-83
2023/07/28 04:23:03;;;;;;;0.70;0.60;;;;;;;19.08;100.00;99097.63;177810;1264;46067;-82
2023/07/28 04:27:07;;;;;;;1.40;0.70;;;;;;;19.06;100.00;99100.90;178578;1263;44358;-82
2023/07/28 04:31:11;;;;;;;1.40;0.60;;;;;;;19.07;100.00;99100.40;178432;1263;46132;-83
2023/07/28 04:35:14;;;;;;;2.60;0.70;;;;;;;19.09;100.00;99105.83;178525;1265;57988;-83
2023/07/28 04:39:16;;;;;;;2.00;0.30;;;;;;;19.12;100.00;99101.96;178762;1265;44518;-82
2023/07/28 04:43:19;;;;;;;3.30;1.00;;;;;;;19.16;100.00;99099.17;178154;1267;46180;-83
2023/07/28 04:47:22;;;;;;;3.80;0.50;;;;;;;19.18;100.00;99100.66;178662;1265;46147;-83
2023/07/28 04:51:25;;;;;;;3.00;0.70;;;;;;;19.23;100.00;99095.80;178685;1265;46169;-83
2023/07/28 04:55:28;;;;;;;0.60;0.50;;;;;;;19.28;100.00;99094.95;179432;1263;57915;-83
2023/07/28 04:59:31;;;;;;;2.50;0.50;;;;;;;19.36;100.00;99091.73;179700;1265;46209;-83
2023/07/28 05:03:34;;;;;;;1.70;0.60;;;;;;;19.47;100.00;99090.41;179187;1265;44145;-83
2023/07/28 05:07:37;;;;;;;3.10;1.20;;;;;;;19.58;100.00;99086.17;178547;1265;46076;-82
2023/07/28 05:11:40;;;;;;;1.50;0.30;;;;;;;19.69;100.00;99082.89;179656;1264;43857;-83
2023/07/28 05:15:43;;;;;;;1.90;0.40;;;;;;;19.75;100.00;99081.06;179330;1264;59245;-84
2023/07/28 05:19:46;;;;;;;2.10;0.40;;;;;;;19.80;100.00;99079.65;178601;1264;45329;-83
2023/07/28 05:23:48;;;;;;;1.40;0.30;;;;;;;19.86;100.00;99087.10;178327;1264;45952;-83
2023/07/28 05:27:51;;;;;;;0.50;0.10;;;;;;;19.91;100.00;99090.42;178262;1263;46118;-83
2023/07/28 05:31:54;;;;;;;0.80;0.50;;;;;;;19.96;100.00;99100.95;178327;1264;46067;-83
2023/07/28 05:36:00;;;;;;;2.70;0.20;;;;;;;19.93;100.00;99104.58;177597;1266;57887;-82
2023/07/28 05:40:07;;;;;;;0.60;0.20;;;;;;;19.92;100.00;99097.52;178420;1263;46088;-82
2023/07/28 05:44:10;;;;;;;0.10;0.10;;;;;;;19.93;100.00;99097.51;177684;1263;46082;-83
2023/07/28 05:48:13;;;;;;;0.40;0.20;;;;;;;19.98;100.00;99093.00;177882;1267;46240;-83
2023/07/28 05:52:16;;;;;;;0.90;0.60;;;;;;;20.09;100.00;99094.61;177764;1263;46139;-83
2023/07/28 05:56:19;;;;;;;14.30;1.00;;;;;;;20.22;100.00;99094.18;177751;1263;58426;-82
2023/07/28 06:00:22;;;;;;;0.60;0.10;;;;;;;20.32;100.00;99093.70;177893;1263;45974;-82
2023/07/28 06:04:25;;;;;;;0.50;0.20;;;;;;;20.40;100.00;99091.48;177794;1264;46025;-83
2023/07/28 06:08:28;;;;;;;1.90;0.20;;;;;;;20.47;100.00;99095.91;177868;1264;44129;-83
2023/07/28 06:12:31;;;;;;;1.40;0.30;;;;;;;20.58;100.00;99098.48;178567;1264;45956;-83
2023/07/28 06:16:34;;;;;;;0.70;0.30;;;;;;;20.66;100.00;99106.85;177932;1263;59310;-83
2023/07/28 06:20:38;;;;;;;1.10;0.20;;;;;;;20.72;100.00;99107.00;178525;1263;46060;-83
2023/07/28 06:24:41;;;;;;;1.50;0.20;;;;;;;20.81;100.00;99116.66;178028;1264;46135;-83
2023/07/28 06:28:44;;;;;;;0.70;0.40;;;;;;;20.93;100.00;99117.27;178800;1265;46088;-83
2023/07/28 06:32:47;;;;;;;2.20;0.40;;;;;;;21.11;100.00;99116.86;178344;1269;45982;-83
2023/07/28 06:36:50;;;;;;;2.40;0.30;;;;;;;21.32;100.00;99110.88;178215;1264;59001;-83
2023/07/28 06:40:54;;;;;;;2.50;0.30;;;;;;;21.57;100.00;99103.14;178237;1262;45933;-83
2023/07/28 06:44:56;;;;;;;2.50;0.40;;;;;;;21.79;100.00;99111.14;178389;1263;45997;-83
2023/07/28 06:48:59;;;;;;;0.30;0.20;;;;;;;21.99;100.00;99116.75;178672;1263;46095;-83
2023/07/28 06:53:02;;;;;;;3.40;0.60;;;;;;;22.04;100.00;99115.16;178938;1263;43822;-83
2023/07/28 06:57:06;;;;;;;1.50;0.30;;;;;;;22.09;100.00;99118.17;178210;1263;59791;-83
2023/07/28 07:01:10;;;;;;;5.60;0.80;;;;;;;22.06;100.00;99126.86;178573;1263;46130;-83
2023/07/28 07:05:13;;;;;;;1.20;0.40;;;;;;;21.94;100.00;99126.52;178838;1262;45991;-83
2023/07/28 07:09:17;;;;;;;2.30;0.60;;;;;;;21.86;100.00;99132.59;178123;1263;44006;-83
2023/07/28 07:13:20;;;;;;;2.60;0.50;;;;;;;21.81;100.00;99135.31;179195;1263;44749;-83
2023/07/28 07:17:23;;;;;;;1.70;0.80;;;;;;;21.78;100.00;99145.38;178995;1262;58785;-83
2023/07/28 07:21:28;;;;;;;1.10;0.70;;;;;;;21.80;100.00;99147.31;178304;1262;45860;-83
2023/07/28 07:25:31;;;;;;;0.70;0.50;;;;;;;21.79;100.00;99155.48;178987;1264;46027;-83
2023/07/28 07:29:34;;;;;;;1.10;0.80;;;;;;;21.86;100.00;99154.61;178788;1263;46231;-83
2023/07/28 07:33:37;;;;;;;0.70;0.50;;;;;;;21.82;100.00;99152.57;178626;1264;46068;-83
2023/07/28 07:37:40;;;;;;;2.50;0.80;;;;;;;21.80;100.00;99154.79;178200;1264;58175;-83
2023/07/28 07:41:43;;;;;;;0.60;0.50;;;;;;;21.79;100.00;99160.02;178806;1267;46166;-83
2023/07/28 07:45:47;;;;;;;1.00;0.50;;;;;;;21.87;100.00;99166.30;178807;1264;47275;-83
2023/07/28 07:49:50;;;;;;;0.80;0.80;;;;;;;21.73;100.00;99171.05;178248;1266;46013;-83
2023/07/28 07:53:53;;;;;;;1.60;0.40;;;;;;;21.47;100.00;99182.25;177735;1264;46124;-83
2023/07/28 07:57:57;;;;;;;2.30;0.80;;;;;;;21.06;100.00;99182.33;178293;1263;58265;-83
2023/07/28 08:02:02;;;;;;;3.20;0.70;;;;;;;20.81;100.00;99182.86;178443;1263;44229;-83
2023/07/28 08:06:05;;;;;;;1.30;1.20;;;;;;;20.69;100.00;99180.42;178196;1262;46023;-83
2023/07/28 08:10:09;;;;;;;1.00;0.90;;;;;;;20.78;100.00;99183.53;177937;1264;44958;-83
2023/07/28 08:14:12;;;;;;;0.50;0.40;;;;;;;21.00;100.00;99190.74;178258;1263;44919;-83
2023/07/28 08:18:15;;;;;;;1.00;1.00;;;;;;;21.21;100.00;99189.13;178570;1264;57949;-83
2023/07/28 08:22:18;;;;;;;0.50;0.40;;;;;;;21.41;100.00;99185.44;179168;1264;46708;-83
2023/07/28 08:26:21;;;;;;;1.60;0.70;;;;;;;21.62;100.00;99182.93;178755;1264;46027;-84
2023/07/28 08:30:24;;;;;;;1.50;0.80;;;;;;;21.77;100.00;99192.69;178642;1266;46177;-83
2023/07/28 08:34:27;;;;;;;1.10;0.90;;;;;;;21.89;100.00;99195.95;178516;1262;46108;-83
2023/07/28 08:38:30;;;;;;;3.00;1.50;;;;;;;22.07;100.00;99189.98;178317;1263;58408;-83
2023/07/28 08:42:38;;;;;;;1.50;1.10;;;;;;;22.24;100.00;99188.56;178866;1262;46036;-83
2023/07/28 08:46:41;;;;;;;2.70;0.60;;;;;;;22.50;100.00;99186.94;179022;1265;46004;-83
2023/07/28 08:50:45;;;;;;;2.20;1.90;;;;;;;22.95;100.00;99182.04;179339;1265;44172;-83
2023/07/28 08:54:48;;;;;;;1.30;1.00;;;;;;;23.34;100.00;99182.13;178516;1264;46818;-82
2023/07/28 08:58:57;;;;;;;3.60;1.30;;;;;;;23.36;100.00;99175.21;178551;1265;58562;-83
2023/07/28 09:03:01;;;;;;;1.70;1.00;;;;;;;23.41;99.80;99175.46;178970;1265;46028;-83
2023/07/28 09:07:05;;;;;;;1.00;0.90;;;;;;;23.33;100.00;99173.76;179246;1263;46065;-83
2023/07/28 09:11:09;;;;;;;1.90;1.50;;;;;;;23.11;99.76;99176.39;178520;1265;45988;-83
2023/07/28 09:15:12;;;;;;;4.90;1.00;;;;;;;23.20;97.68;99177.02;178680;1265;44271;-83
2023/07/28 09:19:15;;;;;;;0.50;0.50;;;;;;;23.24;96.78;99183.48;178734;1264;58583;-83
2023/07/28 09:23:28;;;;;;;1.90;1.00;;;;;;;23.35;96.39;99187.54;178842;1264;45986;-83
2023/07/28 09:27:31;;;;;;;1.90;0.90;;;;;;;23.36;95.64;99184.27;178820;1264;45980;-83
2023/07/28 09:31:34;;;;;;;2.20;1.40;;;;;;;23.33;95.16;99180.91;179045;1265;46056;-83
2023/07/28 09:35:49;;;;;;;1.20;0.50;;;;;;;23.31;94.32;99186.08;178265;1264;46011;-83
2023/07/28 09:39:53;;;;;;;2.60;0.80;;;;;;;23.42;94.78;99178.07;178954;1264;58998;-83
2023/07/28 09:43:57;;;;;;;1.40;1.10;;;;;;;23.69;93.75;99186.95;178662;1265;45877;-83
2023/07/28 09:48:02;;;;;;;1.50;1.40;;;;;;;23.95;92.38;99178.81;179359;1263;46114;-83
2023/07/28 09:52:09;;;;;;;0.80;0.70;;;;;;;24.06;91.51;99172.89;179003;1264;46126;-83
2023/07/28 09:56:18;;;;;;;1.40;0.60;;;;;;;23.95;89.41;99174.05;178890;1264;44281;-83
2023/07/28 10:00:24;;;;;;;2.10;0.80;;;;;;;23.98;90.10;99178.48;178974;1264;59968;-84
2023/07/28 10:04:30;;;;;;;13.70;1.40;;;;;;;24.37;88.39;99169.54;179278;1262;45898;-83
2023/07/28 10:08:34;;;;;;;3.60;1.10;;;;;;;24.69;85.18;99164.56;179296;1264;46034;-83
2023/07/28 10:12:52;;;;;;;;;;;;;;;24.74;83.80;99161.20;179024;1264;45095;-83
2023/07/28 10:17:01;;;;;;;2.00;1.10;;;;;;;24.97;84.45;99157.45;179484;1265;45757;-83
2023/07/28 10:21:16;;;;;;;1.40;1.30;;;;;;;25.25;83.88;99155.55;179461;1262;58362;-83
2023/07/28 10:25:25;;;;;;;2.10;1.50;;;;;;;25.62;81.20;99162.77;179347;1263;45989;-83
2023/07/28 10:29:37;;;;;;;3.50;0.70;;;;;;;25.76;78.96;99166.86;179584;1263;43516;-83
2023/07/28 10:33:44;;;;;;;1.90;1.00;;;;;;;26.00;77.00;99165.33;179217;1263;45519;-83
2023/07/28 10:37:48;;;;;;;1.80;0.80;;;;;;;26.13;76.01;99167.08;179319;1265;43556;-83
2023/07/28 10:42:08;;;;;;;3.10;0.90;;;;;;;26.24;74.65;99158.76;179669;1263;58261;-84
2023/07/28 10:46:21;;;;;;;4.10;1.00;;;;;;;26.45;74.30;99161.89;179306;1264;45880;-84
2023/07/28 10:50:27;;;;;;;0.60;0.40;;;;;;;26.41;73.69;99163.49;179519;1263;46253;-84
2023/07/28 10:54:31;;;;;;;1.70;0.70;;;;;;;26.35;75.33;99162.18;179433;1264;45969;-83
2023/07/28 10:58:36;;;;;;;0.70;0.60;;;;;;;26.50;73.00;99162.59;179623;1265;45937;-83
2023/07/28 11:02:48;;;;;;;1.70;0.80;;;;;;;26.35;73.14;99156.91;179518;1263;58045;-83
2023/07/28 11:06:51;;;;;;;0.80;0.80;;;;;;;26.31;73.16;99154.30;179471;1262;44515;-83
2023/07/28 11:10:55;;;;;;;1.00;0.50;;;;;;;26.26;73.09;99156.97;179191;1264;45905;-84
2023/07/28 11:14:58;;;;;;;1.20;0.40;;;;;;;26.37;73.84;99162.30;179337;1262;46148;-83
2023/07/28 11:19:06;;;;;;;2.00;0.90;;;;;;;26.56;72.19;99154.13;179465;1263;43625;-83
2023/07/28 11:23:13;;;;;;;0.60;0.30;;;;;;;26.59;71.29;99155.91;179314;1263;58261;-83
2023/07/28 11:27:16;;;;;;;1.40;0.30;;;;;;;26.63;70.81;99144.33;179337;1264;44107;-83
2023/07/28 11:31:25;;;;;;;1.80;0.50;;;;;;;26.59;70.83;99144.11;179314;1263;46138;-83
2023/07/28 11:35:29;;;;;;;2.00;0.40;;;;;;;26.40;70.72;99141.29;179534;1262;44799;-83
2023/07/28 11:39:32;;;;;;;1.40;0.40;;;;;;;26.23;70.27;99144.95;179372;1265;45953;-83
2023/07/28 11:43:35;;;;;;;1.20;0.20;;;;;;;26.19;71.12;99154.06;179347;1263;58900;-83
2023/07/28 11:47:39;;;;;;;2.20;0.90;;;;;;;26.25;72.48;99156.38;179264;1264;43935;-83
2023/07/28 11:51:49;;;;;;;2.20;0.40;;;;;;;26.47;74.21;99163.21;179837;1264;46116;-83
2023/07/28 11:55:52;;;;;;;1.80;0.10;;;;;;;26.77;72.28;99159.71;179232;1262;44402;-83
2023/07/28 11:59:57;;;;;;;0.60;0.20;;;;;;;26.91;67.66;99159.67;179390;1264;46010;-83
2023/07/28 12:04:19;;;;;;;0.60;0.30;;;;;;;27.07;68.04;99159.29;179274;1265;58230;-83
2023/07/28 12:08:36;;;;;;;1.90;0.20;;;;;;;27.15;66.64;99163.98;179556;1264;44574;-83
2023/07/28 12:12:43;;;;;;;1.80;0.50;;;;;;;27.07;68.69;99167.58;179476;1264;44510;-83
2023/07/28 12:16:49;;;;;;;0.70;0.10;;;;;;;26.82;67.49;99171.91;179506;1264;44414;-83
2023/07/28 12:20:56;;;;;;;0.60;0.40;;;;;;;26.80;69.46;99172.17;179286;1264;44777;-84
2023/07/28 12:25:01;;;;;;;;;;;;;;;27.06;69.77;99178.66;179341;1263;56939;-84
2023/07/28 12:29:04;;;;;;;0.60;0.20;;;;;;;27.35;70.36;99178.73;179601;1262;44409;-83
2023/07/28 12:33:10;;;;;;;0.40;0.30;;;;;;;27.50;68.26;99180.15;179506;1262;46020;-83
2023/07/28 12:37:18;;;;;;;9.80;0.50;;;;;;;27.52;67.65;99176.81;179370;1265;46143;-83
2023/07/28 12:41:44;;;;;;;0.10;0.10;;;;;;;27.58;65.03;99168.88;179650;1265;46062;-83
2023/07/28 12:46:08;;;;;;;2.00;0.20;;;;;;;27.35;65.34;99167.76;179469;1263;58241;-83
2023/07/28 12:50:14;;;;;;;1.40;0.40;;;;;;;27.22;66.88;99166.74;179413;1265;45905;-83
2023/07/28 12:54:21;;;;;;;9.50;0.90;;;;;;;27.47;64.49;99172.08;179518;1265;46197;-84
2023/07/28 12:58:25;;;;;;;2.60;0.20;;;;;;;27.63;63.43;99174.91;179264;1264;45970;-84
2023/07/28 13:02:32;;;;;;;12.50;0.80;;;;;;;27.89;62.57;99168.08;179379;1264;44810;-83
2023/07/28 13:06:37;;;;;;;0.40;0.20;;;;;;;27.74;62.32;99169.21;179793;1265;58260;-83
2023/07/28 13:10:40;;;;;;;0.20;0.20;;;;;;;27.78;62.11;99179.05;179500;1265;46001;-84
2023/07/28 13:14:47;;;;;;;3.70;0.40;;;;;;;28.06;61.71;99171.13;179643;1265;44975;-83
2023/07/28 13:18:50;;;;;;;0.70;0.20;;;;;;;28.07;60.89;99170.20;179611;1264;46164;-83
2023/07/28 13:22:54;;;;;;;1.20;0.60;;;;;;;28.17;60.59;99181.29;179519;1264;46030;-83
2023/07/28 13:26:58;;;;;;;1.10;0.50;;;;;;;28.01;60.07;99178.32;179597;1265;59541;-83
2023/07/28 13:31:02;;;;;;;5.30;0.70;;;;;;;27.91;59.52;99175.90;179791;1264;44238;-83
2023/07/28 13:35:06;;;;;;;0.40;0.20;;;;;;;27.68;59.45;99187.93;179795;1264;44077;-83
2023/07/28 13:39:10;;;;;;;0.90;0.60;;;;;;;27.68;60.11;99194.16;179820;1264;44984;-84
2023/07/28 13:43:14;;;;;;;7.90;2.20;;;;;;;27.83;60.05;99190.13;179777;1267;46274;-83
2023/07/28 13:47:19;;;;;;;0.90;0.20;;;;;;;28.15;59.56;99195.98;179646;1262;60261;-83
2023/07/28 13:51:23;;;;;;;0.30;0.20;;;;;;;27.94;58.72;99202.89;179686;1263;44109;-83
2023/07/28 13:55:47;;;;;;;0.40;0.30;;;;;;;27.60;59.86;99206.46;179573;1264;44644;-83
2023/07/28 13:59:59;;;;;;;2.40;0.50;;;;;;;27.71;59.29;99204.02;179822;1264;43851;-84
2023/07/28 14:04:04;;;;;;;1.50;0.40;;;;;;;28.02;58.72;99203.80;179502;1265;44659;-84
2023/07/28 14:08:08;;;;;;;3.50;0.30;;;;;;;28.35;57.38;99208.98;179792;1265;57966;-84
2023/07/28 14:12:14;;;;;;;2.00;0.30;;;;;;;28.57;56.42;99207.77;179879;1265;43809;-83
2023/07/28 14:16:20;;;;;;;1.30;0.20;;;;;;;28.69;56.28;99208.16;180121;1265;44160;-83
2023/07/28 14:20:39;;;;;;;1.30;0.60;;;;;;;28.65;56.93;99205.75;179775;1264;51012;-83
2023/07/28 14:24:44;;;;;;;0.60;0.30;;;;;;;28.62;56.79;99199.34;179702;1264;43491;-83
2023/07/28 14:28:47;;;;;;;0.30;0.10;;;;;;;28.66;56.64;99198.47;179702;1264;57946;-83
2023/07/28 14:32:52;;;;;;;0.70;0.10;;;;;;;28.98;56.12;99195.38;179885;1264;46241;-83
2023/07/28 14:37:05;;;;;;;1.50;0.50;;;;;;;29.13;55.52;99198.20;179985;1265;46153;-84
2023/07/28 14:41:12;;;;;;;0.70;0.20;;;;;;;29.24;55.51;99205.63;179867;1269;44069;-83
2023/07/28 14:45:16;;;;;;;0.40;0.40;;;;;;;29.42;55.93;99207.42;179807;1264;44516;-83
2023/07/28 14:49:21;;;;;;;0.20;0.10;;;;;;;29.48;55.21;99206.21;179777;1263;58045;-83
2023/07/28 14:53:36;;;;;;;1.80;0.50;;;;;;;29.15;55.36;99206.74;179748;1265;43818;-83
2023/07/28 14:57:40;;;;;;;1.90;0.50;;;;;;;29.06;56.33;99210.42;179880;1264;45839;-83
2023/07/28 15:01:44;;;;;;;1.00;0.70;;;;;;;28.92;56.21;99215.23;179831;1262;44125;-83
2023/07/28 15:05:47;;;;;;;1.00;0.20;;;;;;;28.46;56.72;99210.70;179743;1264;44736;-83
2023/07/28 15:09:51;;;;;;;1.00;0.40;;;;;;;28.41;58.17;99217.80;179819;1263;57969;-83
2023/07/28 15:13:55;;;;;;;0.80;0.20;;;;;;;28.62;57.44;99213.36;179867;1264;44048;-84
2023/07/28 15:17:58;;;;;;;3.70;0.30;;;;;;;28.72;56.71;99213.53;179796;1264;44743;-83
2023/07/28 15:22:02;;;;;;;1.90;0.20;;;;;;;28.67;56.08;99221.02;179703;1265;45158;-83
2023/07/28 15:26:06;;;;;;;0.20;0.10;;;;;;;28.46;56.45;99221.48;179723;1264;46126;-83
2023/07/28 15:30:12;;;;;;;2.80;0.30;;;;;;;28.40;56.01;99218.09;179440;1264;61449;-83
2023/07/28 15:34:16;;;;;;;1.30;0.40;;;;;;;28.51;56.30;99221.88;179968;1266;44371;-83
2023/07/28 15:38:21;;;;;;;1.90;0.30;;;;;;;28.63;55.79;99222.55;179969;1268;46284;-83
2023/07/28 15:42:25;;;;;;;1.20;0.60;;;;;;;28.80;55.82;99223.06;179846;1263;44052;-83
2023/07/28 15:46:29;;;;;;;1.40;0.50;;;;;;;29.07;55.64;99219.84;179870;1265;46090;-83
2023/07/28 15:50:33;;;;;;;1.30;0.40;;;;;;;28.99;55.36;99224.39;179845;1264;58400;-83
2023/07/28 15:54:37;;;;;;;0.80;0.30;;;;;;;29.11;54.79;99222.41;179629;1264;45910;-83
2023/07/28 15:58:41;;;;;;;0.80;0.30;;;;;;;29.02;55.12;99223.73;179857;1264;45896;-82
2023/07/28 16:02:46;;;;;;;0.60;0.30;;;;;;;28.84;56.06;99229.15;180077;1264;43657;-82
2023/07/28 16:06:52;;;;;;;1.30;0.50;;;;;;;28.79;56.56;99230.98;180029;1263;45921;-82
2023/07/28 16:10:56;;;;;;;0.10;0.10;;;;;;;28.78;56.73;99230.17;180028;1263;58308;-82
2023/07/28 16:14:59;;;;;;;0.80;0.30;;;;;;;29.00;56.67;99231.27;179926;1264;43878;-82
2023/07/28 16:19:05;;;;;;;14.30;3.50;;;;;;;29.05;55.35;99226.36;179815;1263;44786;-82
2023/07/28 16:23:09;;;;;;;1.50;0.60;;;;;;;29.14;55.04;99232.20;180114;1264;44636;-83
2023/07/28 16:27:13;;;;;;;1.00;0.30;;;;;;;29.09;55.11;99239.71;179816;1268;44576;-82
2023/07/28 16:31:16;;;;;;;1.40;1.30;;;;;;;28.97;55.35;99237.85;180088;1264;58193;-82
2023/07/28 16:35:20;;;;;;;1.00;0.60;;;;;;;28.76;55.47;99244.77;179948;1264;45909;-82
2023/07/28 16:39:24;;;;;;;4.70;0.50;;;;;;;28.72;55.66;99249.58;179830;1264;46055;-82
2023/07/28 16:43:28;;;;;;;0.50;0.40;;;;;;;28.40;56.13;99257.79;179591;1265;45950;-82
2023/07/28 16:47:36;;;;;;;1.90;0.60;;;;;;;28.31;57.14;99264.05;179554;1267;46014;-83
2023/07/28 16:51:40;;;;;;;12.60;1.20;;;;;;;28.13;57.34;99264.95;179663;1264;58417;-83
2023/07/28 16:55:44;;;;;;;1.40;0.50;;;;;;;27.91;57.67;99263.34;179918;1266;45575;-83
2023/07/28 16:59:48;;;;;;;1.00;0.80;;;;;;;27.92;57.34;99266.39;179896;1263;43436;-83
2023/07/28 17:03:51;;;;;;;4.30;1.30;;;;;;;27.61;58.14;99274.48;180003;1263;44647;-83
2023/07/28 17:07:55;;;;;;;2.30;1.20;;;;;;;27.46;58.67;99273.31;179822;1264;44250;-82
2023/07/28 17:11:59;;;;;;;2.80;0.70;;;;;;;27.24;59.52;99285.71;179567;1265;58214;-82
2023/07/28 17:16:03;;;;;;;1.80;0.70;;;;;;;27.04;60.46;99285.22;179919;1263;46486;-83
2023/07/28 17:20:06;;;;;;;1.90;1.10;;;;;;;26.92;61.36;99285.99;179482;1265;45940;-85
2023/07/28 17:24:10;;;;;;;1.30;0.80;;;;;;;26.69;61.93;99285.53;179991;1266;46063;-83
2023/07/28 17:28:13;;;;;;;3.50;0.80;;;;;;;26.47;62.91;99294.08;179924;1266;46133;-82
2023/07/28 17:32:16;;;;;;;22.30;4.00;;;;;;;26.44;63.38;99290.29;179616;1264;58216;-83
2023/07/28 17:36:20;;;;;;;2.50;1.20;;;;;;;26.39;63.78;99290.23;179739;1265;45898;-82
2023/07/28 17:40:24;;;;;;;4.80;1.10;;;;;;;26.38;64.07;99291.48;179660;1264;46032;-81
2023/07/28 17:44:27;;;;;;;3.40;1.40;;;;;;;26.36;64.47;99298.27;179450;1264;46024;-82
2023/07/28 17:48:31;;;;;;;0.90;0.50;;;;;;;26.33;64.95;99304.06;179680;1264;45495;-83
2023/07/28 17:52:35;;;;;;;3.20;0.70;;;;;;;26.29;67.94;99315.41;179605;1263;57926;-82
2023/07/28 17:56:39;;;;;;;1.90;0.70;;;;;;;26.22;70.97;99324.52;179626;1265;46120;-83
2023/07/28 18:00:43;;;;;;;1.50;0.30;;;;;;;25.98;72.99;99320.05;179773;1267;46034;-83
2023/07/28 18:04:46;;;;;;;1.60;0.90;;;;;;;25.76;74.63;99329.61;179400;1267;45940;-83
2023/07/28 18:08:50;;;;;;;3.60;0.80;;;;;;;25.59;75.75;99330.44;179238;1264;44511;-83
2023/07/28 18:12:53;;;;;;;1.30;0.70;;;;;;;25.42;76.66;99343.06;179696;1263;59565;-84
2023/07/28 18:16:56;;;;;;;0.80;0.60;;;;;;;25.27;77.21;99348.63;179918;1265;46220;-83
2023/07/28 18:21:01;;;;;;;1.40;0.80;;;;;;;25.03;79.17;99365.25;179229;1267;46106;-83
2023/07/28 18:25:05;;;;;;;4.20;1.00;;;;;;;24.81;80.96;99367.68;179073;1265;46063;-83
2023/07/28 18:29:08;;;;;;;7.30;0.90;;;;;;;24.60;82.41;99371.75;179642;1267;45266;-83
2023/07/28 18:33:12;;;;;;;1.30;1.20;;;;;;;24.39;83.57;99373.29;179428;1267;57695;-83
2023/07/28 18:37:16;;;;;;;1.90;1.40;;;;;;;24.24;84.46;99376.61;179471;1268;44809;-82
2023/07/28 18:41:19;;;;;;;3.90;1.70;;;;;;;24.13;84.52;99378.10;179105;1267;44550;-84
2023/07/28 18:45:23;;;;;;;1.70;1.20;;;;;;;24.02;84.84;99384.05;179058;1264;44860;-83
2023/07/28 18:49:26;;;;;;;5.30;1.70;;;;;;;23.93;85.56;99386.16;179038;1267;46027;-83
2023/07/28 18:53:29;;;;;;;1.90;0.90;;;;;;;23.81;86.08;99392.89;179251;1267;58259;-82